createdAt,value
2016-07-25T00:00:00.115Z,22.86
2016-07-25T00:01:00.121Z,22.93
2016-07-25T00:02:01.517Z,22.84
2016-07-25T00:03:00.099Z,22.8
2016-07-25T00:04:00.100Z,22.87
2016-07-25T00:05:00.794Z,22.75
2016-07-25T00:06:00.788Z,22.82
2016-07-25T00:07:00.786Z,22.86
2016-07-25T00:08:00.769Z,22.71
2016-07-25T00:09:00.072Z,22.68
2016-07-25T00:10:00.053Z,22.74
2016-07-25T00:11:00.041Z,22.64
2016-07-25T00:12:01.452Z,22.69
2016-07-25T00:13:00.032Z,22.65
2016-07-25T00:14:01.443Z,22.6
2016-07-25T00:15:00.720Z,22.52
2016-07-25T00:16:00.719Z,22.39
2016-07-25T00:17:00.706Z,22.43
2016-07-25T00:18:01.458Z,22.47
2016-07-25T00:19:00.714Z,22.52
2016-07-25T00:20:00.685Z,22.39
2016-07-25T00:20:59.977Z,22.44
2016-07-25T00:22:00.674Z,22.35
2016-07-25T00:23:01.376Z,22.34
2016-07-25T00:24:00.659Z,22.34
2016-07-25T00:25:00.654Z,22.31
2016-07-25T00:26:00.645Z,22.31
2016-07-25T00:27:00.641Z,22.28
2016-07-25T00:28:01.337Z,22.34
2016-07-25T00:29:00.632Z,22.28
2016-07-25T00:30:00.616Z,22.2
2016-07-25T00:31:00.609Z,22.2
2016-07-25T00:32:00.598Z,22.13
2016-07-25T00:33:00.633Z,22.19
2016-07-25T00:33:59.878Z,22.12
2016-07-25T00:34:59.877Z,22.13
2016-07-25T00:36:00.569Z,22.1
2016-07-25T00:37:00.563Z,22.14
2016-07-25T00:38:00.556Z,22.04
2016-07-25T00:38:59.842Z,22.07
2016-07-25T00:39:59.839Z,22.12
2016-07-25T00:41:00.537Z,22.02
2016-07-25T00:41:59.820Z,22.02
2016-07-25T00:42:59.817Z,22.07
2016-07-25T00:44:00.719Z,22.02
2016-07-25T00:45:00.512Z,22.01
2016-07-25T00:45:59.793Z,22.09
2016-07-25T00:47:00.529Z,22.06
2016-07-25T00:47:59.781Z,22.09
2016-07-25T00:48:59.776Z,22.07
2016-07-25T00:50:00.474Z,22.06
2016-07-25T00:50:59.760Z,22.04
2016-07-25T00:51:59.757Z,22.07
2016-07-25T00:53:00.457Z,22.04
2016-07-25T00:53:59.733Z,22.1
2016-07-25T00:54:59.733Z,22.04
2016-07-25T00:56:00.429Z,22.13
2016-07-25T00:56:59.718Z,21.99
2016-07-25T00:57:59.705Z,21.99
2016-07-25T00:58:59.699Z,22.02
2016-07-25T01:00:00.398Z,22.04
2016-07-25T01:00:59.688Z,21.92
2016-07-25T01:02:00.388Z,22.02
2016-07-25T01:03:00.379Z,21.98
2016-07-25T01:03:59.666Z,21.92
2016-07-25T01:04:59.661Z,21.99
2016-07-25T01:05:59.656Z,21.97
2016-07-25T01:07:00.352Z,21.99
2016-07-25T01:08:00.338Z,22.02
2016-07-25T01:08:59.629Z,22.01
2016-07-25T01:10:00.325Z,22.01
2016-07-25T01:11:00.326Z,21.99
2016-07-25T01:12:00.311Z,22.02
2016-07-25T01:13:00.305Z,22.01
2016-07-25T01:14:00.298Z,21.98
2016-07-25T01:14:59.585Z,21.99
2016-07-25T01:16:00.280Z,22.06
2016-07-25T01:16:59.572Z,21.98
2016-07-25T01:18:00.973Z,21.98
2016-07-25T01:19:00.970Z,22.04
2016-07-25T01:20:00.260Z,21.97
2016-07-25T01:20:59.542Z,22.02
2016-07-25T01:22:00.249Z,22.01
2016-07-25T01:23:00.235Z,21.98
2016-07-25T01:23:59.525Z,21.97
2016-07-25T01:25:00.230Z,22.02
2016-07-25T01:26:00.211Z,21.94
2016-07-25T01:27:00.205Z,21.95
2016-07-25T01:28:00.906Z,21.94
2016-07-25T01:28:59.492Z,21.98
2016-07-25T01:30:00.183Z,21.92
2016-07-25T01:30:59.468Z,21.94
2016-07-25T01:31:59.459Z,21.97
2016-07-25T01:32:59.453Z,21.94
2016-07-25T01:34:00.150Z,21.95
2016-07-25T01:35:00.163Z,21.91
2016-07-25T01:36:00.138Z,21.88
2016-07-25T01:36:59.420Z,21.94
2016-07-25T01:37:59.413Z,21.91
2016-07-25T01:39:00.112Z,21.9
2016-07-25T01:40:00.108Z,21.85
2016-07-25T01:41:00.103Z,21.82
2016-07-25T01:41:59.387Z,21.78
2016-07-25T01:43:00.092Z,21.85
2016-07-25T01:43:59.377Z,21.81
2016-07-25T01:45:00.073Z,21.81
2016-07-25T01:46:00.775Z,21.79
2016-07-25T01:47:00.767Z,21.88
2016-07-25T01:48:00.063Z,21.78
2016-07-25T01:49:00.041Z,21.79
2016-07-25T01:50:00.039Z,21.79
2016-07-25T01:51:00.029Z,21.92
2016-07-25T01:51:59.311Z,21.78
2016-07-25T01:53:00.012Z,21.83
2016-07-25T01:53:59.295Z,21.85
2016-07-25T01:55:00.710Z,21.91
2016-07-25T01:55:59.994Z,21.9
2016-07-25T01:56:59.982Z,21.94
2016-07-25T01:57:59.268Z,21.91
2016-07-25T01:58:59.968Z,21.9
2016-07-25T01:59:59.253Z,21.92
2016-07-25T02:00:59.244Z,21.85
2016-07-25T02:01:59.942Z,21.81
2016-07-25T02:02:59.230Z,21.78
2016-07-25T02:03:59.929Z,21.94
2016-07-25T02:04:59.920Z,21.9
2016-07-25T02:05:59.919Z,21.97
2016-07-25T02:06:59.909Z,21.9
2016-07-25T02:07:59.193Z,21.94
2016-07-25T02:08:59.892Z,21.97
2016-07-25T02:09:59.178Z,21.91
2016-07-25T02:10:59.168Z,21.91
2016-07-25T02:12:00.576Z,21.91
2016-07-25T02:12:59.859Z,21.9
2016-07-25T02:13:59.867Z,21.88
2016-07-25T02:15:00.558Z,21.95
2016-07-25T02:15:59.860Z,21.92
2016-07-25T02:16:59.837Z,21.9
2016-07-25T02:17:59.828Z,21.82
2016-07-25T02:18:59.107Z,21.9
2016-07-25T02:19:59.106Z,21.91
2016-07-25T02:20:59.101Z,21.83
2016-07-25T02:21:59.090Z,21.76
2016-07-25T02:22:59.081Z,21.78
2016-07-25T02:23:59.782Z,21.76
2016-07-25T02:24:59.775Z,21.82
2016-07-25T02:26:00.473Z,21.74
2016-07-25T02:26:59.757Z,21.79
2016-07-25T02:27:59.762Z,21.79
2016-07-25T02:28:59.037Z,21.71
2016-07-25T02:29:59.737Z,21.67
2016-07-25T02:31:00.450Z,21.63
2016-07-25T02:31:59.013Z,21.67
2016-07-25T02:33:00.431Z,21.67
2016-07-25T02:33:59.708Z,21.71
2016-07-25T02:34:59.705Z,21.67
2016-07-25T02:35:59.692Z,21.67
2016-07-25T02:36:59.683Z,21.64
2016-07-25T02:37:58.993Z,21.6
2016-07-25T02:38:58.966Z,21.66
2016-07-25T02:39:59.670Z,21.59
2016-07-25T02:40:59.666Z,21.59
2016-07-25T02:41:59.665Z,21.6
2016-07-25T02:42:59.640Z,21.6
2016-07-25T02:43:59.834Z,21.59
2016-07-25T02:44:58.917Z,21.67
2016-07-25T02:45:59.618Z,21.57
2016-07-25T02:46:59.611Z,21.57
2016-07-25T02:48:00.315Z,21.56
2016-07-25T02:48:59.597Z,21.57
2016-07-25T02:49:58.937Z,21.57
2016-07-25T02:50:58.879Z,21.5
2016-07-25T02:51:59.580Z,21.46
2016-07-25T02:52:58.863Z,21.48
2016-07-25T02:53:58.870Z,21.57
2016-07-25T02:55:00.262Z,21.54
2016-07-25T02:55:58.842Z,21.59
2016-07-25T02:56:58.826Z,21.57
2016-07-25T02:57:59.536Z,21.48
2016-07-25T02:59:00.229Z,21.61
2016-07-25T03:00:00.224Z,21.61
2016-07-25T03:00:58.799Z,21.57
2016-07-25T03:01:59.501Z,21.6
2016-07-25T03:02:59.495Z,21.6
2016-07-25T03:03:58.777Z,21.61
2016-07-25T03:04:58.770Z,21.63
2016-07-25T03:05:59.470Z,21.66
2016-07-25T03:07:00.171Z,21.63
2016-07-25T03:07:58.748Z,21.72
2016-07-25T03:08:59.449Z,21.6
2016-07-25T03:09:59.443Z,21.6
2016-07-25T03:11:00.141Z,21.6
2016-07-25T03:11:59.419Z,21.59
2016-07-25T03:12:59.415Z,21.63
2016-07-25T03:13:58.702Z,21.51
2016-07-25T03:14:59.407Z,21.6
2016-07-25T03:15:59.390Z,21.51
2016-07-25T03:16:59.391Z,21.48
2016-07-25T03:17:59.374Z,21.61
2016-07-25T03:18:59.372Z,21.54
2016-07-25T03:19:58.654Z,21.54
2016-07-25T03:20:58.649Z,21.5
2016-07-25T03:21:59.347Z,21.5
2016-07-25T03:22:59.341Z,21.57
2016-07-25T03:23:58.622Z,21.53
2016-07-25T03:24:58.619Z,21.6
2016-07-25T03:25:59.320Z,21.53
2016-07-25T03:26:59.308Z,21.51
2016-07-25T03:27:59.306Z,21.45
2016-07-25T03:28:59.296Z,21.57
2016-07-25T03:29:59.283Z,21.53
2016-07-25T03:30:58.574Z,21.54
2016-07-25T03:31:59.978Z,21.5
2016-07-25T03:32:58.557Z,21.46
2016-07-25T03:33:58.551Z,21.35
2016-07-25T03:34:58.542Z,21.39
2016-07-25T03:35:59.245Z,21.41
2016-07-25T03:36:59.236Z,21.48
2016-07-25T03:37:59.225Z,21.45
2016-07-25T03:38:58.513Z,21.5
2016-07-25T03:39:59.208Z,21.44
2016-07-25T03:40:59.204Z,21.45
2016-07-25T03:41:59.197Z,21.38
2016-07-25T03:42:59.200Z,21.46
2016-07-25T03:43:58.482Z,21.38
2016-07-25T03:44:58.534Z,21.39
2016-07-25T03:45:58.468Z,21.38
2016-07-25T03:47:00.836Z,21.39
2016-07-25T03:47:58.443Z,21.44
2016-07-25T03:48:58.431Z,21.41
2016-07-25T03:49:59.841Z,21.39
2016-07-25T03:50:59.844Z,21.45
2016-07-25T03:51:58.416Z,21.5
2016-07-25T03:52:58.405Z,21.44
2016-07-25T03:53:58.394Z,21.38
2016-07-25T03:54:59.099Z,21.48
2016-07-25T03:55:58.384Z,21.41
2016-07-25T03:56:59.079Z,21.41
2016-07-25T03:57:59.079Z,21.34
2016-07-25T03:58:58.369Z,21.36
2016-07-25T03:59:58.367Z,21.3
2016-07-25T04:00:59.055Z,21.32
2016-07-25T04:01:59.041Z,21.36
2016-07-25T04:02:58.332Z,21.32
2016-07-25T04:03:58.319Z,21.21
2016-07-25T04:04:59.021Z,21.32
2016-07-25T04:05:58.304Z,21.27
2016-07-25T04:06:59.008Z,21.39
2016-07-25T04:07:59.000Z,21.32
2016-07-25T04:08:58.293Z,21.26
2016-07-25T04:09:59.693Z,21.34
2016-07-25T04:10:58.271Z,21.34
2016-07-25T04:11:58.978Z,21.23
2016-07-25T04:12:58.254Z,21.34
2016-07-25T04:13:58.243Z,21.35
2016-07-25T04:14:58.948Z,21.39
2016-07-25T04:15:59.644Z,21.41
2016-07-25T04:16:59.644Z,21.39
2016-07-25T04:17:59.629Z,21.24
2016-07-25T04:18:58.216Z,21.3
2016-07-25T04:19:58.211Z,21.27
2016-07-25T04:20:58.194Z,21.34
2016-07-25T04:21:58.890Z,21.27
2016-07-25T04:22:58.181Z,21.27
2016-07-25T04:23:58.879Z,21.35
2016-07-25T04:24:58.875Z,21.27
2016-07-25T04:25:58.862Z,21.29
2016-07-25T04:26:58.860Z,21.35
2016-07-25T04:27:58.851Z,21.26
2016-07-25T04:28:58.843Z,21.36
2016-07-25T04:29:58.129Z,21.3
2016-07-25T04:30:58.120Z,21.24
2016-07-25T04:31:58.107Z,21.39
2016-07-25T04:32:58.106Z,21.3
2016-07-25T04:33:58.809Z,21.27
2016-07-25T04:34:59.501Z,21.32
2016-07-25T04:35:58.785Z,21.32
2016-07-25T04:36:59.500Z,21.41
2016-07-25T04:37:58.066Z,21.38
2016-07-25T04:38:58.071Z,21.34
2016-07-25T04:39:58.757Z,21.36
2016-07-25T04:40:58.058Z,21.29
2016-07-25T04:41:58.743Z,21.36
2016-07-25T04:42:58.732Z,21.29
2016-07-25T04:43:58.727Z,21.45
2016-07-25T04:44:58.008Z,21.41
2016-07-25T04:45:59.420Z,21.46
2016-07-25T04:46:58.704Z,21.39
2016-07-25T04:47:58.698Z,21.48
2016-07-25T04:48:58.686Z,21.38
2016-07-25T04:49:57.976Z,21.48
2016-07-25T04:50:59.430Z,21.53
2016-07-25T04:51:58.672Z,21.51
2016-07-25T04:52:57.950Z,21.5
2016-07-25T04:53:57.946Z,21.48
2016-07-25T04:54:58.644Z,21.56
2016-07-25T04:55:58.135Z,21.56
2016-07-25T04:56:58.629Z,21.48
2016-07-25T04:57:58.627Z,21.48
2016-07-25T04:58:57.906Z,21.5
2016-07-25T04:59:58.615Z,21.5
2016-07-25T05:00:57.893Z,21.44
2016-07-25T05:01:59.302Z,21.35
2016-07-25T05:02:58.584Z,21.35
2016-07-25T05:03:57.871Z,21.38
2016-07-25T05:04:58.575Z,21.46
2016-07-25T05:05:58.563Z,21.59
2016-07-25T05:06:57.851Z,21.5
2016-07-25T05:07:57.844Z,21.54
2016-07-25T05:08:59.248Z,21.51
2016-07-25T05:09:58.535Z,21.53
2016-07-25T05:10:57.822Z,21.53
2016-07-25T05:11:58.525Z,21.5
2016-07-25T05:12:57.807Z,21.46
2016-07-25T05:13:57.829Z,21.5
2016-07-25T05:14:59.208Z,21.56
2016-07-25T05:15:58.490Z,21.57
2016-07-25T05:16:57.775Z,21.59
2016-07-25T05:17:57.771Z,21.54
2016-07-25T05:18:58.468Z,21.54
2016-07-25T05:19:57.754Z,21.57
2016-07-25T05:20:57.747Z,21.5
2016-07-25T05:21:58.442Z,21.48
2016-07-25T05:22:57.732Z,21.5
2016-07-25T05:23:58.435Z,21.56
2016-07-25T05:24:58.428Z,21.57
2016-07-25T05:25:58.415Z,21.53
2016-07-25T05:26:58.410Z,21.59
2016-07-25T05:27:58.397Z,21.51
2016-07-25T05:28:58.396Z,21.53
2016-07-25T05:29:59.090Z,21.51
2016-07-25T05:30:58.381Z,21.53
2016-07-25T05:31:58.378Z,21.59
2016-07-25T05:32:58.369Z,21.56
2016-07-25T05:33:58.357Z,21.56
2016-07-25T05:34:58.358Z,21.54
2016-07-25T05:35:59.045Z,21.56
2016-07-25T05:36:58.332Z,21.6
2016-07-25T05:37:58.326Z,21.53
2016-07-25T05:38:57.616Z,21.53
2016-07-25T05:39:57.601Z,21.59
2016-07-25T05:40:57.601Z,21.54
2016-07-25T05:41:58.294Z,21.54
2016-07-25T05:42:58.287Z,21.5
2016-07-25T05:43:58.987Z,21.53
2016-07-25T05:44:57.571Z,21.57
2016-07-25T05:45:58.264Z,21.48
2016-07-25T05:46:58.265Z,21.54
2016-07-25T05:47:58.253Z,21.48
2016-07-25T05:48:58.970Z,21.54
2016-07-25T05:49:58.236Z,21.61
2016-07-25T05:50:57.528Z,21.48
2016-07-25T05:51:57.511Z,21.54
2016-07-25T05:52:58.218Z,21.56
2016-07-25T05:53:57.500Z,21.66
2016-07-25T05:54:57.491Z,21.66
2016-07-25T05:55:58.193Z,21.69
2016-07-25T05:56:58.180Z,21.72
2016-07-25T05:57:57.473Z,21.71
2016-07-25T05:58:57.462Z,21.76
2016-07-25T05:59:57.471Z,21.79
2016-07-25T06:00:57.446Z,21.83
2016-07-25T06:01:57.447Z,21.85
2016-07-25T06:02:57.432Z,21.9
2016-07-25T06:03:57.429Z,21.91
2016-07-25T06:04:58.125Z,21.98
2016-07-25T06:05:58.142Z,21.94
2016-07-25T06:06:57.403Z,21.95
2016-07-25T06:07:57.395Z,22.01
2016-07-25T06:08:57.388Z,21.97
2016-07-25T06:09:57.391Z,21.98
2016-07-25T06:10:58.095Z,22.01
2016-07-25T06:11:57.366Z,22.01
2016-07-25T06:12:57.371Z,21.95
2016-07-25T06:13:58.065Z,21.97
2016-07-25T06:14:58.054Z,22.02
2016-07-25T06:15:58.757Z,21.91
2016-07-25T06:16:57.329Z,21.99
2016-07-25T06:17:58.032Z,21.91
2016-07-25T06:18:58.733Z,21.99
2016-07-25T06:19:57.320Z,21.92
2016-07-25T06:20:58.730Z,21.98
2016-07-25T06:21:58.008Z,21.99
2016-07-25T06:22:58.703Z,21.95
2016-07-25T06:23:57.991Z,22.02
2016-07-25T06:24:58.838Z,21.99
2016-07-25T06:25:57.279Z,21.99
2016-07-25T06:26:57.265Z,22.06
2016-07-25T06:27:58.736Z,22.09
2016-07-25T06:28:57.959Z,22.06
2016-07-25T06:29:58.675Z,22.07
2016-07-25T06:30:57.233Z,22.2
2016-07-25T06:31:57.224Z,22.22
2016-07-25T06:32:57.214Z,22.27
2016-07-25T06:33:57.922Z,22.37
2016-07-25T06:34:57.916Z,22.29
2016-07-25T06:35:58.616Z,22.34
2016-07-25T06:36:58.664Z,22.28
2016-07-25T06:37:58.670Z,22.28
2016-07-25T06:38:57.179Z,22.23
2016-07-25T06:39:57.177Z,22.27
2016-07-25T06:40:57.867Z,22.28
2016-07-25T06:41:57.158Z,22.43
2016-07-25T06:42:57.151Z,22.49
2016-07-25T06:43:58.113Z,22.52
2016-07-25T06:44:58.548Z,22.67
2016-07-25T06:45:57.129Z,22.64
2016-07-25T06:46:57.125Z,22.67
2016-07-25T06:47:57.168Z,22.75
2016-07-25T06:48:57.815Z,22.83
2016-07-25T06:49:57.853Z,22.83
2016-07-25T06:50:57.809Z,22.8
2016-07-25T06:51:57.142Z,22.9
2016-07-25T06:52:57.085Z,22.9
2016-07-25T06:53:58.489Z,22.9
2016-07-25T06:54:57.067Z,22.9
2016-07-25T06:55:57.066Z,22.93
2016-07-25T06:56:57.780Z,22.97
2016-07-25T06:57:57.750Z,23.01
2016-07-25T06:58:57.039Z,22.9
2016-07-25T06:59:58.452Z,23.01
2016-07-25T07:00:57.029Z,23.01
2016-07-25T07:01:57.726Z,23.22
2016-07-25T07:02:57.723Z,23.05
2016-07-25T07:03:57.713Z,23.09
2016-07-25T07:04:58.542Z,23.17
2016-07-25T07:05:57.710Z,23.22
2016-07-25T07:06:56.984Z,23.29
2016-07-25T07:07:58.394Z,23.27
2016-07-25T07:08:57.182Z,23.24
2016-07-25T07:09:57.671Z,23.26
2016-07-25T07:10:57.673Z,23.27
2016-07-25T07:11:56.955Z,23.23
2016-07-25T07:12:56.948Z,23.38
2016-07-25T07:13:57.646Z,23.43
2016-07-25T07:14:57.643Z,23.4
2016-07-25T07:15:56.925Z,23.39
2016-07-25T07:16:57.623Z,23.42
2016-07-25T07:17:57.619Z,23.55
2016-07-25T07:18:57.619Z,23.6
2016-07-25T07:19:56.910Z,23.58
2016-07-25T07:20:57.604Z,23.64
2016-07-25T07:21:57.593Z,23.68
2016-07-25T07:23:56.876Z,23.71
2016-07-25T07:24:57.574Z,23.76
2016-07-25T07:25:58.282Z,23.64
2016-07-25T07:26:58.267Z,23.64
2016-07-25T07:27:56.845Z,23.62
2016-07-25T07:28:58.255Z,23.55
2016-07-25T07:29:56.842Z,23.6
2016-07-25T07:30:56.829Z,23.5
2016-07-25T07:31:56.823Z,23.53
2016-07-25T07:32:56.814Z,23.5
2016-07-25T07:33:57.520Z,23.55
2016-07-25T07:34:56.814Z,23.52
2016-07-25T07:35:56.795Z,23.5
2016-07-25T07:36:56.792Z,23.52
2016-07-25T07:37:56.790Z,23.92
2016-07-25T07:38:57.490Z,24.35
2016-07-25T07:39:56.778Z,24.54
2016-07-25T07:40:58.530Z,24.83
2016-07-25T07:41:58.189Z,25.06
2016-07-25T07:42:56.755Z,25.1
2016-07-25T07:43:57.462Z,25.27
2016-07-25T07:44:57.455Z,25.25
2016-07-25T07:45:58.152Z,25.28
2016-07-25T07:46:57.439Z,25.28
2016-07-25T07:47:56.727Z,25.49
2016-07-25T07:48:57.428Z,25.46
2016-07-25T07:49:57.428Z,25.53
2016-07-25T07:50:57.416Z,25.46
2016-07-25T07:51:56.719Z,25.3
2016-07-25T07:52:56.704Z,25.2
2016-07-25T07:53:56.697Z,25.01
2016-07-25T07:54:57.394Z,25.17
2016-07-25T07:55:58.101Z,25.2
2016-07-25T07:56:57.390Z,25.19
2016-07-25T07:57:57.380Z,25.31
2016-07-25T07:58:57.383Z,25.8
2016-07-25T07:59:56.671Z,26.55
2016-07-25T08:00:57.371Z,26.8
2016-07-25T08:01:56.669Z,27.04
2016-07-25T08:03:58.076Z,27.51
2016-07-25T08:04:57.355Z,27.71
2016-07-25T08:05:57.347Z,27.76
2016-07-25T08:06:56.632Z,27.85
2016-07-25T08:07:56.632Z,27.99
2016-07-25T08:08:57.336Z,27.92
2016-07-25T08:09:56.623Z,28.22
2016-07-25T08:10:58.031Z,28.36
2016-07-25T08:11:56.618Z,28.38
2016-07-25T08:12:56.620Z,28.59
2016-07-25T08:13:58.026Z,28.65
2016-07-25T08:14:57.312Z,28.7
2016-07-25T08:15:56.599Z,28.66
2016-07-25T08:16:57.305Z,28.33
2016-07-25T08:17:57.299Z,28.06
2016-07-25T08:18:57.300Z,27.95
2016-07-25T08:19:57.294Z,27.58
2016-07-25T08:20:57.288Z,27.26
2016-07-25T08:21:57.295Z,27.02
2016-07-25T08:22:56.573Z,26.84
2016-07-25T08:23:56.580Z,26.55
2016-07-25T08:24:57.276Z,26.49
2016-07-25T08:25:57.274Z,26.22
2016-07-25T08:26:57.277Z,26.06
2016-07-25T08:27:56.552Z,26.04
2016-07-25T08:28:57.970Z,25.97
2016-07-25T08:29:56.552Z,25.9
2016-07-25T08:30:57.252Z,25.84
2016-07-25T08:31:56.538Z,25.87
2016-07-25T08:32:57.246Z,25.94
2016-07-25T08:33:57.244Z,26.09
2016-07-25T08:34:57.711Z,26.09
2016-07-25T08:35:57.229Z,26.52
2016-07-25T08:36:57.224Z,26.39
2016-07-25T08:37:57.926Z,26.67
2016-07-25T08:38:57.213Z,27.19
2016-07-25T08:39:56.502Z,27.04
2016-07-25T08:40:57.216Z,26.81
2016-07-25T08:41:57.198Z,26.55
2016-07-25T08:42:57.196Z,26.37
2016-07-25T08:43:57.895Z,26.37
2016-07-25T08:44:56.480Z,26.24
2016-07-25T08:45:57.182Z,26.46
2016-07-25T08:46:56.472Z,26.77
2016-07-25T08:47:56.467Z,26.68
2016-07-25T08:48:57.179Z,26.62
2016-07-25T08:49:56.459Z,26.39
2016-07-25T08:50:56.460Z,26.4
2016-07-25T08:51:57.150Z,26.29
2016-07-25T08:52:57.154Z,26.37
2016-07-25T08:53:57.855Z,26.47
2016-07-25T08:54:56.442Z,26.44
2016-07-25T08:55:57.138Z,26.5
2016-07-25T08:56:57.128Z,26.47
2016-07-25T08:57:57.127Z,26.61
2016-07-25T08:58:57.126Z,26.72
2016-07-25T08:59:56.408Z,26.89
2016-07-25T09:00:57.114Z,26.79
2016-07-25T09:01:57.107Z,26.61
2016-07-25T09:02:57.099Z,26.59
2016-07-25T09:03:56.391Z,26.54
2016-07-25T09:04:56.384Z,26.4
2016-07-25T09:05:57.799Z,26.37
2016-07-25T09:06:57.886Z,26.32
2016-07-25T09:07:57.090Z,26.35
2016-07-25T09:08:56.365Z,26.25
2016-07-25T09:09:57.071Z,26.31
2016-07-25T09:10:56.371Z,26.31
2016-07-25T09:11:56.356Z,26.15
2016-07-25T09:12:57.051Z,26.11
2016-07-25T09:13:57.069Z,26.2
2016-07-25T09:14:56.332Z,26.32
2016-07-25T09:15:57.039Z,26.4
2016-07-25T09:16:56.528Z,26.47
2016-07-25T09:17:57.027Z,26.55
2016-07-25T09:18:56.371Z,26.62
2016-07-25T09:19:57.726Z,26.61
2016-07-25T09:20:57.013Z,26.68
2016-07-25T09:21:57.007Z,26.98
2016-07-25T09:22:56.291Z,27.21
2016-07-25T09:23:56.996Z,27.57
2016-07-25T09:24:56.998Z,27.48
2016-07-25T09:25:56.981Z,27.64
2016-07-25T09:26:57.696Z,27.85
2016-07-25T09:27:56.270Z,28.25
2016-07-25T09:28:56.970Z,28.69
2016-07-25T09:29:56.963Z,28.84
2016-07-25T09:30:56.963Z,28.56
2016-07-25T09:31:56.248Z,28.41
2016-07-25T09:32:56.952Z,28.35
2016-07-25T09:33:56.240Z,28.14
2016-07-25T09:34:56.238Z,28.07
2016-07-25T09:35:56.228Z,27.98
2016-07-25T09:36:56.932Z,27.84
2016-07-25T09:37:56.924Z,27.84
2016-07-25T09:38:57.628Z,27.8
2016-07-25T09:39:56.208Z,27.66
2016-07-25T09:40:56.208Z,27.54
2016-07-25T09:41:56.909Z,27.48
2016-07-25T09:42:56.200Z,27.36
2016-07-25T09:43:56.195Z,27.41
2016-07-25T09:44:56.187Z,27.33
2016-07-25T09:45:57.597Z,27.35
2016-07-25T09:46:56.180Z,27.35
2016-07-25T09:47:56.882Z,27.29
2016-07-25T09:48:56.170Z,27.17
2016-07-25T09:49:56.885Z,26.98
2016-07-25T09:50:56.160Z,26.81
2016-07-25T09:51:56.152Z,26.68
2016-07-25T09:52:56.151Z,26.49
2016-07-25T09:53:56.866Z,26.42
2016-07-25T09:54:57.552Z,26.52
2016-07-25T09:55:56.133Z,26.68
2016-07-25T09:56:56.837Z,26.72
2016-07-25T09:57:56.834Z,26.77
2016-07-25T09:58:56.124Z,26.61
2016-07-25T09:59:56.117Z,26.55
2016-07-25T10:00:56.109Z,26.49
2016-07-25T10:01:56.103Z,26.36
2016-07-25T10:02:57.529Z,26.37
2016-07-25T10:03:56.094Z,26.46
2016-07-25T10:04:56.295Z,26.47
2016-07-25T10:05:56.790Z,26.68
2016-07-25T10:06:56.790Z,26.74
2016-07-25T10:07:57.489Z,26.84
2016-07-25T10:08:56.074Z,26.92
2016-07-25T10:09:56.066Z,27.02
2016-07-25T10:10:56.059Z,27.2
2016-07-25T10:11:56.055Z,27.2
2016-07-25T10:12:56.770Z,27.32
2016-07-25T10:13:56.045Z,27.46
2016-07-25T10:14:56.750Z,27.38
2016-07-25T10:15:56.747Z,27.46
2016-07-25T10:16:56.743Z,27.61
2016-07-25T10:17:56.026Z,27.53
2016-07-25T10:18:56.736Z,27.47
2016-07-25T10:19:57.437Z,27.5
2016-07-25T10:20:56.021Z,27.82
2016-07-25T10:21:56.025Z,27.91
2016-07-25T10:22:57.425Z,28.1
2016-07-25T10:23:56.708Z,28.33
2016-07-25T10:24:56.005Z,28.6
2016-07-25T10:25:55.999Z,28.48
2016-07-25T10:26:56.703Z,28.16
2016-07-25T10:27:56.695Z,28.16
2016-07-25T10:28:57.405Z,28.43
2016-07-25T10:29:57.401Z,28.84
2016-07-25T10:30:56.691Z,29.04
2016-07-25T10:31:56.691Z,29.55
2016-07-25T10:32:57.391Z,29.96
2016-07-25T10:33:55.985Z,30.11
2016-07-25T10:34:55.990Z,30.45
2016-07-25T10:35:55.976Z,30.74
2016-07-25T10:36:55.982Z,30.37
2016-07-25T10:37:56.684Z,30.29
2016-07-25T10:38:57.390Z,29.99
2016-07-25T10:39:56.684Z,29.93
2016-07-25T10:40:57.391Z,29.33
2016-07-25T10:41:57.393Z,29.1
2016-07-25T10:42:57.391Z,28.69
2016-07-25T10:43:56.687Z,28.4
2016-07-25T10:44:56.897Z,28.82
2016-07-25T10:45:55.978Z,29.33
2016-07-25T10:46:55.975Z,29.89
2016-07-25T10:47:57.391Z,30.33
2016-07-25T10:48:56.684Z,30.52
2016-07-25T10:49:56.682Z,30.86
2016-07-25T10:50:56.688Z,31.21
2016-07-25T10:51:56.706Z,31.49
2016-07-25T10:52:55.976Z,31.75
2016-07-25T10:53:56.685Z,31.65
2016-07-25T10:54:57.393Z,31.92
2016-07-25T10:55:56.707Z,32.18
2016-07-25T10:56:55.979Z,32.2
2016-07-25T10:57:56.687Z,32.33
2016-07-25T10:58:56.697Z,32.3
2016-07-25T10:59:56.702Z,32.17
2016-07-25T11:00:56.003Z,32.36
2016-07-25T11:01:56.694Z,32.44
2016-07-25T11:02:55.993Z,32.42
2016-07-25T11:03:56.703Z,31.92
2016-07-25T11:04:57.421Z,32.02
2016-07-25T11:05:56.010Z,32.22
2016-07-25T11:06:56.709Z,31.98
2016-07-25T11:07:56.005Z,32.06
2016-07-25T11:08:56.003Z,32.25
2016-07-25T11:09:56.715Z,32.52
2016-07-25T11:10:56.012Z,32.25
2016-07-25T11:11:56.013Z,32.06
2016-07-25T11:12:56.017Z,31.93
2016-07-25T11:13:56.022Z,32.13
2016-07-25T11:14:56.027Z,32.39
2016-07-25T11:15:56.736Z,31.77
2016-07-25T11:16:56.751Z,31.8
2016-07-25T11:17:56.738Z,31.92
2016-07-25T11:18:56.740Z,31.15
2016-07-25T11:19:56.744Z,31.28
2016-07-25T11:20:56.751Z,31.26
2016-07-25T11:21:56.747Z,31.49
2016-07-25T11:22:57.456Z,31.88
2016-07-25T11:23:56.755Z,31.73
2016-07-25T11:24:56.051Z,31.31
2016-07-25T11:25:56.759Z,31.57
2016-07-25T11:26:56.760Z,31.5
2016-07-25T11:27:56.058Z,31.85
2016-07-25T11:28:56.064Z,31.92
2016-07-25T11:29:56.060Z,31.99
2016-07-25T11:30:56.061Z,32.21
2016-07-25T11:31:56.772Z,32.48
2016-07-25T11:32:56.775Z,32.71
2016-07-25T11:33:56.773Z,32.92
2016-07-25T11:34:56.068Z,33.17
2016-07-25T11:35:56.081Z,33.36
2016-07-25T11:36:56.787Z,33.49
2016-07-25T11:37:56.082Z,33.34
2016-07-25T11:38:56.081Z,33.37
2016-07-25T11:39:56.099Z,33.48
2016-07-25T11:40:56.091Z,33.73
2016-07-25T11:41:56.093Z,33.86
2016-07-25T11:42:56.099Z,34.07
2016-07-25T11:43:56.834Z,34.2
2016-07-25T11:44:57.524Z,34.19
2016-07-25T11:45:56.130Z,33.82
2016-07-25T11:46:56.818Z,33.46
2016-07-25T11:47:56.842Z,33.64
2016-07-25T11:48:56.135Z,33.43
2016-07-25T11:49:56.834Z,33.04
2016-07-25T11:50:56.835Z,32.49
2016-07-25T11:51:56.131Z,32.2
2016-07-25T11:52:56.140Z,31.95
2016-07-25T11:53:56.841Z,31.6
2016-07-25T11:54:56.141Z,31.26
2016-07-25T11:55:56.904Z,30.98
2016-07-25T11:56:56.851Z,30.71
2016-07-25T11:57:56.149Z,30.45
2016-07-25T11:58:56.851Z,30.14
2016-07-25T11:59:56.158Z,29.99
2016-07-25T12:00:56.155Z,29.81
2016-07-25T12:01:56.155Z,29.55
2016-07-25T12:02:56.159Z,29.33
2016-07-25T12:03:56.869Z,29.1
2016-07-25T12:04:56.156Z,28.97
2016-07-25T12:05:57.569Z,28.72
2016-07-25T12:06:56.879Z,28.53
2016-07-25T12:07:57.571Z,28.5
2016-07-25T12:08:56.358Z,28.33
2016-07-25T12:09:56.863Z,28.4
2016-07-25T12:10:56.857Z,28.36
2016-07-25T12:11:56.859Z,28.4
2016-07-25T12:12:56.858Z,28.25
2016-07-25T12:13:56.862Z,28.23
2016-07-25T12:14:56.148Z,28.16
2016-07-25T12:15:56.850Z,28.1
2016-07-25T12:16:56.851Z,28.21
2016-07-25T12:17:56.136Z,28.11
2016-07-25T12:18:56.851Z,28.16
2016-07-25T12:19:56.895Z,28.25
2016-07-25T12:20:57.568Z,28.21
2016-07-25T12:21:56.846Z,28.21
2016-07-25T12:22:56.834Z,28.03
2016-07-25T12:23:56.836Z,27.98
2016-07-25T12:24:56.844Z,28.07
2016-07-25T12:25:56.826Z,28.07
2016-07-25T12:26:56.141Z,28.1
2016-07-25T12:27:56.828Z,28.13
2016-07-25T12:28:56.818Z,28.06
2016-07-25T12:29:56.816Z,27.91
2016-07-25T12:30:57.520Z,27.89
2016-07-25T12:31:56.807Z,27.84
2016-07-25T12:32:56.809Z,27.89
2016-07-25T12:33:56.820Z,27.76
2016-07-25T12:34:56.837Z,27.79
2016-07-25T12:35:57.502Z,27.73
2016-07-25T12:36:56.085Z,27.85
2016-07-25T12:37:56.786Z,27.91
2016-07-25T12:38:56.782Z,27.98
2016-07-25T12:39:56.074Z,27.99
2016-07-25T12:40:56.087Z,27.89
2016-07-25T12:41:57.500Z,27.85
2016-07-25T12:42:56.771Z,27.88
2016-07-25T12:43:57.480Z,27.95
2016-07-25T12:44:56.965Z,27.88
2016-07-25T12:45:57.471Z,27.86
2016-07-25T12:46:56.756Z,27.86
2016-07-25T12:47:56.957Z,27.88
2016-07-25T12:48:56.752Z,27.84
2016-07-25T12:49:57.449Z,27.77
2016-07-25T12:50:56.740Z,27.79
2016-07-25T12:51:56.086Z,27.76
2016-07-25T12:52:56.762Z,27.74
2016-07-25T12:53:56.729Z,27.76
2016-07-25T12:54:56.723Z,27.84
2016-07-25T12:55:58.400Z,27.86
2016-07-25T12:56:57.691Z,27.88